createdAt,value
2023-02-14T00:00:27.479Z,5.75
2023-02-14T00:02:54.022Z,6.22
2023-02-14T00:05:20.514Z,6.22
2023-02-14T00:07:46.931Z,5.93
2023-02-14T00:10:13.343Z,5.57
2023-02-14T00:12:39.811Z,5.85
2023-02-14T00:15:25.156Z,5.68
2023-02-14T00:17:54.642Z,5.95
2023-02-14T00:20:24.467Z,5.87
2023-02-14T00:22:50.878Z,6.47
2023-02-14T00:25:17.301Z,5.75
2023-02-14T00:27:43.835Z,6.00
2023-02-14T00:30:12.030Z,5.75
2023-02-14T00:32:42.455Z,5.82
2023-02-14T00:37:36.701Z,5.60
2023-02-14T00:40:05.158Z,5.22
2023-02-14T00:42:31.510Z,5.75
2023-02-14T00:44:57.985Z,6.05
2023-02-14T00:47:24.446Z,5.63
2023-02-14T00:49:50.847Z,6.35
2023-02-14T00:52:17.215Z,5.85
2023-02-14T00:54:43.739Z,5.68
2023-02-14T00:57:10.158Z,5.68
2023-02-14T00:59:36.797Z,5.68
2023-02-14T01:02:03.182Z,5.95
2023-02-14T01:04:29.553Z,6.20
2023-02-14T01:06:55.927Z,6.70
2023-02-14T01:09:22.293Z,6.50
2023-02-14T01:11:48.970Z,6.75
2023-02-14T01:14:15.670Z,6.57
2023-02-14T01:16:42.102Z,7.43
2023-02-14T01:19:09.322Z,7.50
2023-02-14T01:21:35.930Z,7.22
2023-02-14T01:24:06.056Z,7.28
2023-02-14T01:26:33.866Z,7.07
2023-02-14T01:29:00.236Z,7.07
2023-02-14T01:31:29.974Z,7.60
2023-02-14T01:33:57.704Z,8.00
2023-02-14T01:36:30.328Z,7.63
2023-02-14T01:38:59.129Z,7.20
2023-02-14T01:41:27.724Z,7.63
2023-02-14T01:44:00.451Z,7.22
2023-02-14T01:46:30.410Z,7.07
2023-02-14T01:49:06.170Z,7.82
2023-02-14T01:51:33.198Z,8.07
2023-02-14T01:54:00.191Z,7.28
2023-02-14T01:56:40.986Z,7.40
2023-02-14T01:59:11.179Z,7.72
2023-02-14T02:01:38.771Z,7.65
2023-02-14T02:04:11.870Z,8.05
2023-02-14T02:06:42.556Z,8.80
2023-02-14T02:09:24.183Z,9.55
2023-02-14T02:11:50.584Z,9.13
2023-02-14T02:14:19.420Z,9.75
2023-02-14T02:17:24.114Z,9.77
2023-02-14T02:20:41.825Z,9.50
2023-02-14T02:23:20.361Z,9.50
2023-02-14T02:26:05.514Z,9.77
2023-02-14T02:28:37.891Z,9.90
2023-02-14T02:31:26.281Z,10.05
2023-02-14T02:33:55.702Z,10.23
2023-02-14T02:36:47.654Z,10.18
2023-02-14T02:39:41.364Z,10.35
2023-02-14T02:42:18.957Z,9.77
2023-02-14T02:45:03.444Z,10.25
2023-02-14T02:48:03.953Z,10.60
2023-02-14T02:53:42.441Z,10.35
2023-02-14T02:56:34.965Z,9.88
2023-02-14T02:59:06.589Z,10.35
2023-02-14T03:01:36.628Z,10.55
2023-02-14T03:04:25.785Z,10.82
2023-02-14T03:06:52.988Z,10.13
2023-02-14T03:09:19.328Z,11.52
2023-02-14T03:12:33.186Z,11.93
2023-02-14T03:15:16.341Z,11.88
2023-02-14T03:18:32.609Z,12.25
2023-02-14T03:21:13.941Z,11.50
2023-02-14T03:24:05.117Z,12.77
2023-02-14T03:26:58.058Z,12.40
2023-02-14T03:29:30.680Z,11.65
2023-02-14T03:32:34.320Z,12.63
2023-02-14T03:35:15.038Z,12.88
2023-02-14T03:38:03.793Z,12.93
2023-02-14T03:40:49.476Z,12.73
2023-02-14T03:43:20.359Z,12.38
2023-02-14T03:45:51.943Z,13.25
2023-02-14T03:48:26.772Z,12.95
2023-02-14T03:50:54.949Z,13.80
2023-02-14T03:53:25.983Z,12.52
2023-02-14T03:56:14.033Z,13.35
2023-02-14T03:58:45.347Z,12.82
2023-02-14T04:01:24.383Z,12.68
2023-02-14T04:03:54.062Z,12.73
2023-02-14T04:06:20.718Z,13.50
2023-02-14T04:08:47.248Z,12.18
2023-02-14T04:11:13.623Z,13.05
2023-02-14T04:13:40.040Z,12.07
2023-02-14T04:16:07.131Z,12.57
2023-02-14T04:18:52.299Z,13.90
2023-02-14T04:21:18.782Z,13.23
2023-02-14T04:23:45.164Z,12.75
2023-02-14T04:26:11.539Z,12.13
2023-02-14T04:28:37.919Z,12.48
2023-02-14T04:31:06.724Z,13.27
2023-02-14T04:33:33.792Z,12.98
2023-02-14T04:36:00.598Z,12.95
2023-02-14T04:38:27.124Z,13.02
2023-02-14T04:40:53.576Z,13.05
2023-02-14T04:43:20.182Z,13.05
2023-02-14T04:45:47.433Z,13.02
2023-02-14T04:48:13.958Z,13.18
2023-02-14T04:50:40.381Z,12.77
2023-02-14T04:53:06.816Z,12.85
2023-02-14T04:55:33.215Z,12.73
2023-02-14T04:57:59.608Z,13.60
2023-02-14T05:00:26.378Z,12.75
2023-02-14T05:02:52.817Z,13.15
2023-02-14T05:05:19.297Z,12.70
2023-02-14T05:07:47.755Z,13.40
2023-02-14T05:10:14.961Z,12.40
2023-02-14T05:12:41.705Z,13.93
2023-02-14T05:15:08.542Z,14.27
2023-02-14T05:17:36.073Z,14.60
2023-02-14T05:20:03.973Z,13.27
2023-02-14T05:22:30.353Z,13.73
2023-02-14T05:24:56.803Z,13.85
2023-02-14T05:27:23.167Z,14.48
2023-02-14T05:29:49.625Z,14.73
2023-02-14T05:32:16.108Z,16.40
2023-02-14T05:34:42.598Z,16.83
2023-02-14T05:37:09.049Z,20.10
2023-02-14T05:39:35.459Z,18.17
2023-02-14T05:42:01.943Z,19.35
2023-02-14T05:44:28.357Z,18.92
2023-02-14T05:46:55.149Z,19.00
2023-02-14T05:49:21.668Z,17.85
2023-02-14T05:51:48.050Z,18.58
2023-02-14T05:54:14.441Z,18.85
2023-02-14T05:56:41.076Z,18.83
2023-02-14T05:59:07.546Z,19.27
2023-02-14T06:01:33.923Z,19.67
2023-02-14T06:04:00.459Z,20.30
2023-02-14T06:06:27.002Z,20.15
2023-02-14T06:08:53.443Z,19.63
2023-02-14T06:11:19.796Z,19.85
2023-02-14T06:13:46.198Z,20.00
2023-02-14T06:16:12.667Z,20.73
2023-02-14T06:18:39.191Z,20.83
2023-02-14T06:21:05.828Z,21.02
2023-02-14T06:23:32.217Z,21.60
2023-02-14T06:25:58.607Z,22.05
2023-02-14T06:28:25.004Z,21.85
2023-02-14T06:30:51.530Z,21.10
2023-02-14T06:33:18.045Z,22.13
2023-02-14T06:35:44.426Z,22.08
2023-02-14T06:38:10.793Z,21.85
2023-02-14T06:40:37.199Z,20.80
2023-02-14T06:43:03.649Z,22.17
2023-02-14T06:45:30.067Z,22.00
2023-02-14T06:47:56.456Z,22.27
2023-02-14T06:50:22.942Z,22.15
2023-02-14T06:52:51.331Z,23.00
2023-02-14T06:55:18.218Z,22.17
2023-02-14T06:57:44.624Z,21.92
2023-02-14T07:00:11.585Z,22.88
2023-02-14T07:02:38.130Z,22.30
2023-02-14T07:05:04.814Z,21.55
2023-02-14T07:07:31.329Z,22.05
2023-02-14T07:09:57.723Z,21.38
2023-02-14T07:12:24.165Z,22.15
2023-02-14T07:14:50.705Z,22.70
2023-02-14T07:17:17.127Z,21.35
2023-02-14T07:19:43.537Z,22.10
2023-02-14T07:22:09.906Z,21.55
2023-02-14T07:24:36.374Z,21.95
2023-02-14T07:27:02.821Z,22.42
2023-02-14T07:29:29.263Z,22.05
2023-02-14T07:31:55.741Z,21.83
2023-02-14T07:34:22.505Z,22.20
2023-02-14T07:36:48.907Z,21.30
2023-02-14T07:39:15.275Z,21.75
2023-02-14T07:41:41.724Z,22.60
2023-02-14T07:44:08.352Z,19.65
2023-02-14T07:46:34.788Z,21.70
2023-02-14T07:49:01.171Z,21.98
2023-02-14T07:51:27.630Z,22.38
2023-02-14T07:53:54.110Z,23.10
2023-02-14T07:56:20.540Z,22.20
2023-02-14T07:58:47.063Z,21.33
2023-02-14T08:01:13.513Z,21.58
2023-02-14T08:03:39.907Z,21.98
2023-02-14T08:06:06.317Z,22.83
2023-02-14T08:08:32.761Z,21.52
2023-02-14T08:10:59.562Z,22.10
2023-02-14T08:13:26.439Z,22.50
2023-02-14T08:16:05.762Z,22.50
2023-02-14T08:18:35.473Z,23.38
2023-02-14T08:21:02.416Z,22.50
2023-02-14T08:23:29.320Z,22.48
2023-02-14T08:25:56.167Z,21.73
2023-02-14T08:28:23.388Z,22.25
2023-02-14T08:30:50.698Z,23.25
2023-02-14T08:33:17.740Z,23.05
2023-02-14T08:35:44.264Z,22.65
2023-02-14T08:38:10.906Z,23.38
2023-02-14T08:40:37.435Z,24.23
2023-02-14T08:43:05.935Z,22.15
2023-02-14T08:45:32.778Z,22.42
2023-02-14T08:48:04.859Z,22.23
2023-02-14T08:50:31.746Z,22.13
2023-02-14T08:52:58.281Z,22.85
2023-02-14T08:55:24.771Z,23.20
2023-02-14T08:57:51.255Z,21.05
2023-02-14T09:00:17.998Z,21.65
2023-02-14T09:02:44.457Z,22.27
2023-02-14T09:05:10.910Z,21.48
2023-02-14T09:07:37.343Z,21.98
2023-02-14T09:10:04.106Z,22.05
2023-02-14T09:12:30.540Z,21.58
2023-02-14T09:14:56.948Z,25.88
2023-02-14T09:17:23.407Z,26.73
2023-02-14T09:19:49.831Z,27.42
2023-02-14T09:22:18.953Z,27.00
2023-02-14T09:24:45.369Z,26.35
2023-02-14T09:27:11.893Z,26.83
2023-02-14T09:29:38.409Z,27.45
2023-02-14T09:32:05.244Z,27.75
2023-02-14T09:34:33.796Z,26.27
2023-02-14T09:37:18.916Z,27.13
2023-02-14T09:39:45.338Z,27.27
2023-02-14T09:42:25.624Z,25.13
2023-02-14T09:45:14.329Z,26.98
2023-02-14T09:47:55.473Z,25.10
2023-02-14T09:50:55.270Z,26.25
2023-02-14T09:53:30.699Z,24.90
2023-02-14T09:56:15.919Z,24.73
2023-02-14T09:59:29.399Z,25.88
2023-02-14T10:02:15.536Z,24.65
2023-02-14T10:04:59.314Z,25.33
2023-02-14T10:07:52.873Z,26.00
2023-02-14T10:10:45.613Z,25.92
2023-02-14T10:13:27.103Z,24.80
2023-02-14T10:16:11.267Z,26.20
2023-02-14T10:18:52.619Z,26.83
2023-02-14T10:21:45.502Z,27.10
2023-02-14T10:24:31.371Z,25.73
2023-02-14T10:27:12.319Z,26.50
2023-02-14T10:29:40.919Z,26.33
2023-02-14T10:32:14.206Z,26.92
2023-02-14T10:34:49.188Z,27.27
2023-02-14T10:37:42.484Z,26.83
2023-02-14T10:40:50.625Z,26.90
2023-02-14T10:43:44.396Z,26.20
2023-02-14T10:46:29.025Z,24.55
2023-02-14T10:49:00.017Z,27.00
2023-02-14T10:51:34.069Z,27.75
2023-02-14T10:54:24.263Z,26.63
2023-02-14T10:56:59.125Z,26.08
2023-02-14T10:59:51.239Z,26.90
2023-02-14T11:02:22.599Z,26.65
2023-02-14T11:04:49.811Z,27.15
2023-02-14T11:07:18.436Z,26.85
2023-02-14T11:09:45.133Z,27.65
2023-02-14T11:12:12.212Z,27.38
2023-02-14T11:14:40.359Z,28.27
2023-02-14T11:17:22.087Z,27.52
2023-02-14T11:19:58.248Z,27.30
2023-02-14T11:22:30.028Z,28.75
2023-02-14T11:25:05.168Z,27.05
2023-02-14T11:27:32.475Z,26.40
2023-02-14T11:30:01.875Z,27.45
2023-02-14T11:32:31.737Z,27.52
2023-02-14T11:35:03.583Z,26.60
2023-02-14T11:37:34.315Z,27.75
2023-02-14T11:40:01.929Z,26.05
2023-02-14T11:42:40.861Z,27.13
2023-02-14T11:45:25.749Z,26.38
2023-02-14T11:48:22.344Z,27.25
2023-02-14T11:51:04.876Z,27.20
2023-02-14T11:53:44.491Z,25.67
2023-02-14T11:56:11.592Z,25.97
2023-02-14T11:58:44.978Z,25.75
2023-02-14T12:01:21.358Z,27.00
2023-02-14T12:03:49.148Z,27.58
2023-02-14T12:06:27.576Z,28.30
2023-02-14T12:09:11.541Z,28.30
2023-02-14T12:11:38.415Z,26.50
2023-02-14T12:14:05.823Z,26.30
2023-02-14T12:16:45.842Z,26.00
2023-02-14T12:19:24.453Z,27.17
2023-02-14T12:22:01.122Z,25.83
2023-02-14T12:24:33.299Z,26.52
2023-02-14T12:27:25.579Z,26.80
2023-02-14T12:30:07.804Z,28.30
2023-02-14T12:32:34.431Z,28.08
2023-02-14T12:35:06.264Z,27.00
2023-02-14T12:38:04.763Z,26.35
2023-02-14T12:40:56.796Z,26.40
2023-02-14T12:43:48.104Z,26.65
2023-02-14T12:46:24.389Z,26.83
2023-02-14T12:49:13.210Z,27.25
2023-02-14T12:51:46.849Z,26.45
2023-02-14T12:54:32.393Z,26.27
2023-02-14T12:57:09.344Z,27.05
2023-02-14T12:59:53.770Z,27.38
2023-02-14T13:02:54.149Z,25.85
2023-02-14T13:05:59.484Z,26.58
2023-02-14T13:08:47.622Z,26.58
2023-02-14T13:11:13.956Z,25.02
2023-02-14T13:14:04.392Z,25.98
2023-02-14T13:19:12.270Z,26.50
2023-02-14T13:21:40.789Z,25.92
2023-02-14T13:24:22.642Z,26.52
2023-02-14T13:26:55.253Z,24.95
2023-02-14T13:29:29.222Z,25.83
2023-02-14T13:32:02.150Z,25.23
2023-02-14T13:34:33.551Z,24.65
2023-02-14T13:37:04.009Z,26.40
2023-02-14T13:42:05.971Z,23.50
2023-02-14T13:44:50.013Z,24.90
2023-02-14T13:47:24.765Z,26.70
2023-02-14T13:49:58.006Z,26.88
2023-02-14T13:52:44.620Z,25.38
2023-02-14T13:55:20.317Z,25.58
2023-02-14T13:57:48.174Z,24.65
2023-02-14T14:00:17.597Z,25.60
2023-02-14T14:02:51.915Z,23.60
2023-02-14T14:05:30.414Z,21.17
2023-02-14T14:08:22.470Z,22.73
2023-02-14T14:10:54.752Z,21.88
2023-02-14T14:13:40.083Z,22.15
2023-02-14T14:16:27.903Z,23.63
2023-02-14T14:19:01.670Z,22.95
2023-02-14T14:21:33.943Z,23.08
2023-02-14T14:24:03.410Z,23.15
2023-02-14T14:26:35.632Z,24.05
2023-02-14T14:29:09.837Z,22.67
2023-02-14T14:31:36.992Z,22.13
2023-02-14T14:34:03.417Z,23.45
2023-02-14T14:36:29.866Z,22.83
2023-02-14T14:38:56.239Z,22.63
2023-02-14T14:41:31.193Z,23.45
2023-02-14T14:43:59.618Z,23.00
2023-02-14T14:46:26.074Z,23.02
2023-02-14T14:48:55.230Z,24.58
2023-02-14T14:51:29.781Z,24.30
2023-02-14T14:54:00.125Z,23.10
2023-02-14T14:56:31.025Z,24.58
2023-02-14T14:58:58.653Z,25.15
2023-02-14T15:01:39.287Z,24.40
2023-02-14T15:04:27.206Z,24.60
2023-02-14T15:06:56.573Z,25.35
2023-02-14T15:09:31.687Z,24.10
2023-02-14T15:12:21.112Z,24.75
2023-02-14T15:14:54.342Z,24.98
2023-02-14T15:17:24.933Z,24.55
2023-02-14T15:19:59.626Z,24.38
2023-02-14T15:22:36.242Z,24.75
2023-02-14T15:25:09.556Z,24.58
2023-02-14T15:27:40.352Z,25.63
2023-02-14T15:30:23.509Z,23.92
2023-02-14T15:32:51.903Z,25.23
2023-02-14T15:35:24.224Z,25.45
2023-02-14T15:37:52.375Z,23.63
2023-02-14T15:40:25.276Z,23.63
2023-02-14T15:42:56.571Z,24.60
2023-02-14T15:45:27.427Z,25.40
2023-02-14T15:47:56.033Z,25.58
2023-02-14T15:50:29.604Z,27.05
2023-02-14T15:53:06.932Z,25.13
2023-02-14T15:55:34.667Z,25.58
2023-02-14T15:58:08.080Z,25.20
2023-02-14T16:00:35.619Z,25.90
2023-02-14T16:03:06.642Z,25.75
2023-02-14T16:05:33.070Z,25.25
2023-02-14T16:08:22.891Z,24.80
2023-02-14T16:11:05.266Z,25.40
2023-02-14T16:13:34.655Z,26.33
2023-02-14T16:16:07.023Z,26.33
2023-02-14T16:18:36.422Z,25.80
2023-02-14T16:21:11.910Z,27.00
2023-02-14T16:23:39.019Z,25.73
2023-02-14T16:26:06.748Z,25.40
2023-02-14T16:28:33.572Z,26.77
2023-02-14T16:31:02.944Z,25.05
2023-02-14T16:33:34.436Z,25.67
2023-02-14T16:36:22.224Z,24.55
2023-02-14T16:38:49.954Z,26.83
2023-02-14T16:41:19.221Z,25.83
2023-02-14T16:43:47.341Z,26.60
2023-02-14T16:46:15.463Z,26.27
2023-02-14T16:48:43.054Z,27.42
2023-02-14T16:51:14.148Z,26.90
2023-02-14T16:53:42.772Z,26.55
2023-02-14T16:56:17.823Z,27.75
2023-02-14T16:58:44.439Z,27.35
2023-02-14T17:01:11.052Z,25.35
2023-02-14T17:03:39.923Z,25.85
2023-02-14T17:06:08.103Z,25.30
2023-02-14T17:08:34.884Z,26.17
2023-02-14T17:11:02.210Z,25.10
2023-02-14T17:13:33.538Z,25.30
2023-02-14T17:16:01.600Z,27.02
2023-02-14T17:18:30.561Z,25.95
2023-02-14T17:20:59.239Z,25.83
2023-02-14T17:23:26.175Z,25.50
2023-02-14T17:25:52.788Z,27.80
2023-02-14T17:28:19.282Z,27.00
2023-02-14T17:30:45.868Z,26.23
2023-02-14T17:33:12.375Z,27.35
2023-02-14T17:35:38.983Z,26.60
2023-02-14T17:38:05.442Z,27.10
2023-02-14T17:40:31.908Z,27.75
2023-02-14T17:42:58.469Z,26.23
2023-02-14T17:45:24.874Z,25.85
2023-02-14T17:47:51.391Z,26.98
2023-02-14T17:50:18.178Z,25.33
2023-02-14T17:52:45.010Z,26.17
2023-02-14T17:55:12.428Z,26.25
2023-02-14T17:57:40.885Z,24.85
2023-02-14T18:00:11.547Z,25.10
2023-02-14T18:02:38.545Z,25.30
2023-02-14T18:05:09.948Z,25.23
2023-02-14T18:07:36.966Z,25.85
2023-02-14T18:10:03.796Z,26.50
2023-02-14T18:12:30.186Z,25.38
2023-02-14T18:14:56.656Z,25.50
2023-02-14T18:17:23.319Z,25.63
2023-02-14T18:19:49.862Z,24.27
2023-02-14T18:22:16.247Z,24.30
2023-02-14T18:24:42.729Z,23.52
2023-02-14T18:27:09.130Z,22.83
2023-02-14T18:29:36.318Z,23.33
2023-02-14T18:32:04.798Z,22.67
2023-02-14T18:34:31.732Z,23.75
2023-02-14T18:36:59.913Z,24.00
2023-02-14T18:39:26.798Z,22.90
2023-02-14T18:41:53.188Z,23.75
2023-02-14T18:44:20.788Z,25.23
2023-02-14T18:46:47.156Z,24.85
2023-02-14T18:49:14.147Z,25.05
2023-02-14T18:51:40.556Z,24.88
2023-02-14T18:54:07.208Z,26.48
2023-02-14T18:56:36.992Z,26.60
2023-02-14T18:59:09.076Z,25.65
2023-02-14T19:01:39.479Z,24.95
2023-02-14T19:06:35.111Z,25.10
2023-02-14T19:09:03.025Z,24.42
2023-02-14T19:11:31.576Z,24.75
2023-02-14T19:13:59.965Z,26.65
2023-02-14T19:16:34.216Z,27.05
2023-02-14T19:19:02.508Z,23.77
2023-02-14T19:21:31.488Z,23.23
2023-02-14T19:23:58.225Z,23.38
2023-02-14T19:26:26.867Z,24.70
2023-02-14T19:29:02.355Z,23.70
2023-02-14T19:31:29.411Z,22.92
2023-02-14T19:33:56.119Z,23.35
2023-02-14T19:36:23.804Z,25.17
2023-02-14T19:38:52.508Z,25.48
2023-02-14T19:41:25.520Z,24.60
2023-02-14T19:43:52.638Z,27.48
2023-02-14T19:46:20.920Z,26.88
2023-02-14T19:48:48.643Z,24.77
2023-02-14T19:51:21.900Z,25.60
2023-02-14T19:53:49.688Z,26.80
2023-02-14T19:56:21.398Z,27.20
2023-02-14T19:58:48.960Z,26.35
2023-02-14T20:01:21.931Z,26.50
2023-02-14T20:03:48.387Z,25.35
2023-02-14T20:06:15.481Z,28.25
2023-02-14T20:08:41.872Z,25.27
2023-02-14T20:11:24.568Z,34.70
2023-02-14T20:13:50.927Z,39.03
2023-02-14T20:16:17.539Z,38.83
2023-02-14T20:18:43.945Z,41.95
2023-02-14T20:21:18.949Z,39.85
2023-02-14T20:23:45.812Z,41.63
2023-02-14T20:26:14.185Z,37.05
2023-02-14T20:28:41.241Z,31.60
2023-02-14T20:31:13.588Z,30.50
2023-02-14T20:33:40.828Z,32.38
2023-02-14T20:36:08.151Z,31.33
2023-02-14T20:38:34.927Z,31.30
2023-02-14T20:41:05.991Z,35.33
2023-02-14T20:43:32.582Z,33.65
2023-02-14T20:46:03.812Z,34.92
2023-02-14T20:48:30.857Z,31.00
2023-02-14T20:50:57.367Z,31.30
2023-02-14T20:53:24.494Z,31.98
2023-02-14T20:55:52.371Z,29.88
2023-02-14T20:58:19.790Z,31.75
2023-02-14T21:00:46.271Z,32.47
2023-02-14T21:03:12.654Z,28.33
2023-02-14T21:05:40.272Z,27.52
2023-02-14T21:08:06.707Z,28.73
2023-02-14T21:10:33.107Z,29.55
2023-02-14T21:12:59.706Z,31.33
2023-02-14T21:15:26.149Z,32.45
2023-02-14T21:17:52.792Z,30.75
2023-02-14T21:20:19.645Z,29.80
2023-02-14T21:22:46.022Z,28.13
2023-02-14T21:25:12.470Z,30.33
2023-02-14T21:27:38.999Z,28.63
2023-02-14T21:30:06.253Z,30.40
2023-02-14T21:32:32.659Z,32.20
2023-02-14T21:34:59.264Z,31.55
2023-02-14T21:37:25.660Z,30.55
2023-02-14T21:39:52.036Z,28.55
2023-02-14T21:42:18.687Z,30.13
2023-02-14T21:45:03.733Z,30.02
2023-02-14T21:47:30.167Z,29.75
2023-02-14T21:50:15.180Z,29.85
2023-02-14T21:52:41.696Z,29.67
2023-02-14T21:55:08.491Z,29.27
2023-02-14T21:57:34.905Z,31.10
2023-02-14T22:00:01.252Z,29.15
2023-02-14T22:02:27.700Z,28.30
2023-02-14T22:04:54.104Z,29.95
2023-02-14T22:07:20.489Z,28.83
2023-02-14T22:09:47.383Z,28.33
2023-02-14T22:12:13.887Z,27.30
2023-02-14T22:14:41.436Z,29.73
2023-02-14T22:17:07.864Z,28.33
2023-02-14T22:19:36.384Z,28.73
2023-02-14T22:22:03.671Z,29.70
2023-02-14T22:24:30.170Z,28.60
2023-02-14T22:26:56.614Z,29.77
2023-02-14T22:29:23.053Z,30.27
2023-02-14T22:31:49.537Z,28.40
2023-02-14T22:34:19.505Z,27.42
2023-02-14T22:36:46.184Z,26.50
2023-02-14T22:39:14.687Z,28.25
2023-02-14T22:41:41.108Z,28.77
2023-02-14T22:44:08.256Z,27.67
2023-02-14T22:46:36.807Z,26.80
2023-02-14T22:49:04.071Z,26.77
2023-02-14T22:51:36.261Z,29.25
2023-02-14T22:54:13.580Z,29.63
2023-02-14T22:56:47.897Z,29.83
2023-02-14T22:59:15.698Z,26.38
2023-02-14T23:01:42.231Z,26.80
2023-02-14T23:04:08.724Z,27.30
2023-02-14T23:06:36.594Z,28.42
2023-02-14T23:09:06.174Z,26.30
2023-02-14T23:11:34.865Z,29.65
2023-02-14T23:14:19.988Z,28.27
2023-02-14T23:17:25.187Z,25.88
2023-02-14T23:20:10.345Z,25.80
2023-02-14T23:22:38.975Z,25.90
2023-02-14T23:25:08.611Z,26.27
2023-02-14T23:27:43.147Z,26.17
2023-02-14T23:30:12.797Z,26.40
2023-02-14T23:32:39.277Z,26.90
2023-02-14T23:35:06.582Z,28.45
2023-02-14T23:37:33.538Z,27.95
2023-02-14T23:40:00.023Z,31.55
2023-02-14T23:42:26.490Z,31.45
2023-02-14T23:44:52.879Z,26.73
2023-02-14T23:47:19.313Z,32.03
2023-02-14T23:49:46.060Z,28.13
2023-02-14T23:52:13.690Z,29.70
2023-02-14T23:54:40.780Z,30.27
2023-02-14T23:57:08.140Z,29.67
2023-02-14T23:59:34.842Z,29.85
